sensor_id;sensor_type;location;lat;lon;timestamp;P1;durP1;ratioP1;P2;durP2;ratioP2
47523;SDS011;33253;42.144;25.884;2022-09-02T00:01:39;17.90;;;8.98;;
47523;SDS011;33253;42.144;25.884;2022-09-02T00:04:14;15.63;;;9.38;;
47523;SDS011;33253;42.144;25.884;2022-09-02T00:06:46;16.50;;;9.75;;
47523;SDS011;33253;42.144;25.884;2022-09-02T00:09:13;15.68;;;9.10;;
47523;SDS011;33253;42.144;25.884;2022-09-02T00:11:42;12.52;;;9.52;;
47523;SDS011;33253;42.144;25.884;2022-09-02T00:14:11;15.38;;;9.82;;
47523;SDS011;33253;42.144;25.884;2022-09-02T00:16:39;16.73;;;9.15;;
47523;SDS011;33253;42.144;25.884;2022-09-02T00:19:06;16.00;;;9.20;;
47523;SDS011;33253;42.144;25.884;2022-09-02T00:21:32;17.17;;;9.60;;
47523;SDS011;33253;42.144;25.884;2022-09-02T00:23:59;16.52;;;9.20;;
47523;SDS011;33253;42.144;25.884;2022-09-02T00:26:29;16.15;;;8.98;;
47523;SDS011;33253;42.144;25.884;2022-09-02T00:28:55;16.23;;;9.35;;
47523;SDS011;33253;42.144;25.884;2022-09-02T00:31:21;14.18;;;8.77;;
47523;SDS011;33253;42.144;25.884;2022-09-02T00:33:48;13.55;;;8.18;;
47523;SDS011;33253;42.144;25.884;2022-09-02T00:36:16;14.45;;;8.88;;
47523;SDS011;33253;42.144;25.884;2022-09-02T00:38:41;14.90;;;8.95;;
47523;SDS011;33253;42.144;25.884;2022-09-02T00:41:08;13.88;;;8.85;;
47523;SDS011;33253;42.144;25.884;2022-09-02T00:43:45;15.02;;;8.48;;
47523;SDS011;33253;42.144;25.884;2022-09-02T00:46:21;17.55;;;8.73;;
47523;SDS011;33253;42.144;25.884;2022-09-02T00:51:38;14.60;;;8.32;;
47523;SDS011;33253;42.144;25.884;2022-09-02T00:54:12;14.05;;;8.35;;
47523;SDS011;33253;42.144;25.884;2022-09-02T00:56:40;12.93;;;7.90;;
47523;SDS011;33253;42.144;25.884;2022-09-02T00:59:07;15.35;;;8.32;;
47523;SDS011;33253;42.144;25.884;2022-09-02T01:01:36;15.43;;;8.77;;
47523;SDS011;33253;42.144;25.884;2022-09-02T01:04:02;15.68;;;8.30;;
47523;SDS011;33253;42.144;25.884;2022-09-02T01:06:27;15.38;;;8.73;;
47523;SDS011;33253;42.144;25.884;2022-09-02T01:08:59;15.52;;;8.45;;
47523;SDS011;33253;42.144;25.884;2022-09-02T01:11:42;14.85;;;9.52;;
47523;SDS011;33253;42.144;25.884;2022-09-02T01:14:12;12.35;;;9.32;;
47523;SDS011;33253;42.144;25.884;2022-09-02T01:16:43;18.45;;;9.18;;
47523;SDS011;33253;42.144;25.884;2022-09-02T01:19:17;14.52;;;8.70;;
47523;SDS011;33253;42.144;25.884;2022-09-02T01:21:48;14.82;;;8.35;;
47523;SDS011;33253;42.144;25.884;2022-09-02T01:24:16;16.80;;;8.85;;
47523;SDS011;33253;42.144;25.884;2022-09-02T01:26:44;14.20;;;8.65;;
47523;SDS011;33253;42.144;25.884;2022-09-02T01:29:10;15.18;;;9.95;;
47523;SDS011;33253;42.144;25.884;2022-09-02T01:31:37;14.88;;;8.95;;
47523;SDS011;33253;42.144;25.884;2022-09-02T01:34:03;14.38;;;9.23;;
47523;SDS011;33253;42.144;25.884;2022-09-02T01:36:30;13.80;;;8.50;;
47523;SDS011;33253;42.144;25.884;2022-09-02T01:38:57;12.52;;;8.57;;
47523;SDS011;33253;42.144;25.884;2022-09-02T01:41:22;13.52;;;9.38;;
47523;SDS011;33253;42.144;25.884;2022-09-02T01:43:48;17.67;;;9.30;;
47523;SDS011;33253;42.144;25.884;2022-09-02T01:46:13;14.50;;;9.15;;
47523;SDS011;33253;42.144;25.884;2022-09-02T01:48:39;13.35;;;9.40;;
47523;SDS011;33253;42.144;25.884;2022-09-02T01:51:05;13.48;;;8.95;;
47523;SDS011;33253;42.144;25.884;2022-09-02T01:53:31;15.55;;;9.52;;
47523;SDS011;33253;42.144;25.884;2022-09-02T01:55:57;14.02;;;8.95;;
47523;SDS011;33253;42.144;25.884;2022-09-02T01:58:23;19.13;;;10.13;;
47523;SDS011;33253;42.144;25.884;2022-09-02T02:00:48;14.60;;;8.85;;
47523;SDS011;33253;42.144;25.884;2022-09-02T02:03:14;12.13;;;8.95;;
47523;SDS011;33253;42.144;25.884;2022-09-02T02:05:39;17.35;;;9.55;;
47523;SDS011;33253;42.144;25.884;2022-09-02T02:08:07;15.20;;;8.93;;
47523;SDS011;33253;42.144;25.884;2022-09-02T02:10:32;16.45;;;8.88;;
47523;SDS011;33253;42.144;25.884;2022-09-02T02:12:59;15.60;;;9.18;;
47523;SDS011;33253;42.144;25.884;2022-09-02T02:15:25;13.75;;;9.10;;
47523;SDS011;33253;42.144;25.884;2022-09-02T02:17:51;15.40;;;9.00;;
47523;SDS011;33253;42.144;25.884;2022-09-02T02:20:17;12.93;;;8.70;;
47523;SDS011;33253;42.144;25.884;2022-09-02T02:23:04;15.70;;;8.98;;
47523;SDS011;33253;42.144;25.884;2022-09-02T02:25:31;16.13;;;9.43;;
47523;SDS011;33253;42.144;25.884;2022-09-02T02:27:56;14.88;;;9.13;;
47523;SDS011;33253;42.144;25.884;2022-09-02T02:30:22;12.02;;;8.80;;
47523;SDS011;33253;42.144;25.884;2022-09-02T02:32:48;15.07;;;9.50;;
47523;SDS011;33253;42.144;25.884;2022-09-02T02:35:14;14.57;;;8.57;;
47523;SDS011;33253;42.144;25.884;2022-09-02T02:37:41;15.82;;;9.35;;
47523;SDS011;33253;42.144;25.884;2022-09-02T02:40:08;12.55;;;8.75;;
47523;SDS011;33253;42.144;25.884;2022-09-02T02:42:36;14.15;;;9.05;;
47523;SDS011;33253;42.144;25.884;2022-09-02T02:45:03;17.23;;;9.15;;
47523;SDS011;33253;42.144;25.884;2022-09-02T02:47:36;13.88;;;8.75;;
47523;SDS011;33253;42.144;25.884;2022-09-02T02:50:04;14.55;;;9.65;;
47523;SDS011;33253;42.144;25.884;2022-09-02T02:52:30;13.25;;;9.43;;
47523;SDS011;33253;42.144;25.884;2022-09-02T02:54:56;13.38;;;9.30;;
47523;SDS011;33253;42.144;25.884;2022-09-02T02:57:21;15.40;;;9.25;;
47523;SDS011;33253;42.144;25.884;2022-09-02T02:59:47;12.68;;;9.10;;
47523;SDS011;33253;42.144;25.884;2022-09-02T03:02:12;12.60;;;9.23;;
47523;SDS011;33253;42.144;25.884;2022-09-02T03:04:38;14.05;;;9.90;;
47523;SDS011;33253;42.144;25.884;2022-09-02T03:07:05;18.60;;;9.90;;
47523;SDS011;33253;42.144;25.884;2022-09-02T03:09:31;14.35;;;9.40;;
47523;SDS011;33253;42.144;25.884;2022-09-02T03:11:57;16.70;;;9.23;;
47523;SDS011;33253;42.144;25.884;2022-09-02T03:14:22;13.20;;;9.80;;
47523;SDS011;33253;42.144;25.884;2022-09-02T03:16:48;14.25;;;9.38;;
47523;SDS011;33253;42.144;25.884;2022-09-02T03:19:14;13.18;;;9.25;;
47523;SDS011;33253;42.144;25.884;2022-09-02T03:21:40;18.10;;;9.65;;
47523;SDS011;33253;42.144;25.884;2022-09-02T03:24:06;22.13;;;9.57;;
47523;SDS011;33253;42.144;25.884;2022-09-02T03:26:33;16.70;;;9.57;;
47523;SDS011;33253;42.144;25.884;2022-09-02T03:28:58;15.73;;;9.38;;
47523;SDS011;33253;42.144;25.884;2022-09-02T03:31:24;25.30;;;9.55;;
47523;SDS011;33253;42.144;25.884;2022-09-02T03:33:51;20.70;;;9.80;;
47523;SDS011;33253;42.144;25.884;2022-09-02T03:38:50;20.63;;;9.15;;
47523;SDS011;33253;42.144;25.884;2022-09-02T03:41:15;17.10;;;8.68;;
47523;SDS011;33253;42.144;25.884;2022-09-02T03:43:41;17.90;;;8.80;;
47523;SDS011;33253;42.144;25.884;2022-09-02T03:46:06;15.98;;;8.70;;
47523;SDS011;33253;42.144;25.884;2022-09-02T03:48:34;13.02;;;8.50;;
47523;SDS011;33253;42.144;25.884;2022-09-02T03:51:00;15.45;;;9.00;;
47523;SDS011;33253;42.144;25.884;2022-09-02T03:53:26;15.05;;;8.23;;
47523;SDS011;33253;42.144;25.884;2022-09-02T03:55:51;14.40;;;8.82;;
47523;SDS011;33253;42.144;25.884;2022-09-02T03:58:17;15.57;;;9.60;;
47523;SDS011;33253;42.144;25.884;2022-09-02T04:00:43;14.57;;;9.93;;
47523;SDS011;33253;42.144;25.884;2022-09-02T04:03:08;19.95;;;10.70;;
47523;SDS011;33253;42.144;25.884;2022-09-02T04:05:34;20.50;;;15.93;;
47523;SDS011;33253;42.144;25.884;2022-09-02T04:08:00;17.63;;;14.52;;
47523;SDS011;33253;42.144;25.884;2022-09-02T04:10:26;14.88;;;11.65;;
47523;SDS011;33253;42.144;25.884;2022-09-02T04:12:52;12.98;;;10.55;;
47523;SDS011;33253;42.144;25.884;2022-09-02T04:15:18;15.95;;;9.55;;
47523;SDS011;33253;42.144;25.884;2022-09-02T04:17:44;18.20;;;10.57;;
47523;SDS011;33253;42.144;25.884;2022-09-02T04:20:10;15.00;;;9.25;;
47523;SDS011;33253;42.144;25.884;2022-09-02T04:22:37;16.25;;;9.38;;
47523;SDS011;33253;42.144;25.884;2022-09-02T04:25:04;18.38;;;12.05;;
47523;SDS011;33253;42.144;25.884;2022-09-02T04:27:31;17.80;;;10.55;;
47523;SDS011;33253;42.144;25.884;2022-09-02T04:29:56;17.13;;;9.70;;
47523;SDS011;33253;42.144;25.884;2022-09-02T04:32:22;14.75;;;9.95;;
47523;SDS011;33253;42.144;25.884;2022-09-02T04:34:48;21.35;;;10.30;;
47523;SDS011;33253;42.144;25.884;2022-09-02T04:37:13;15.32;;;9.27;;
47523;SDS011;33253;42.144;25.884;2022-09-02T04:39:39;38.22;;;14.85;;
47523;SDS011;33253;42.144;25.884;2022-09-02T04:42:05;32.72;;;13.80;;
47523;SDS011;33253;42.144;25.884;2022-09-02T04:44:31;30.73;;;17.05;;
47523;SDS011;33253;42.144;25.884;2022-09-02T04:46:56;25.35;;;13.35;;
47523;SDS011;33253;42.144;25.884;2022-09-02T04:49:22;32.85;;;16.55;;
47523;SDS011;33253;42.144;25.884;2022-09-02T04:51:48;36.35;;;20.25;;
47523;SDS011;33253;42.144;25.884;2022-09-02T04:54:14;37.47;;;18.80;;
47523;SDS011;33253;42.144;25.884;2022-09-02T04:56:39;33.50;;;16.63;;
47523;SDS011;33253;42.144;25.884;2022-09-02T04:59:05;51.75;;;22.10;;
47523;SDS011;33253;42.144;25.884;2022-09-02T05:01:32;40.95;;;24.33;;
47523;SDS011;33253;42.144;25.884;2022-09-02T05:03:58;37.47;;;19.90;;
47523;SDS011;33253;42.144;25.884;2022-09-02T05:06:26;30.35;;;14.93;;
47523;SDS011;33253;42.144;25.884;2022-09-02T05:08:54;28.15;;;12.60;;
47523;SDS011;33253;42.144;25.884;2022-09-02T05:11:21;30.17;;;12.95;;
47523;SDS011;33253;42.144;25.884;2022-09-02T05:13:52;21.45;;;10.05;;
47523;SDS011;33253;42.144;25.884;2022-09-02T05:16:20;32.85;;;11.32;;
47523;SDS011;33253;42.144;25.884;2022-09-02T05:18:48;23.70;;;9.80;;
47523;SDS011;33253;42.144;25.884;2022-09-02T05:21:14;25.33;;;10.30;;
47523;SDS011;33253;42.144;25.884;2022-09-02T05:23:40;27.45;;;9.48;;
47523;SDS011;33253;42.144;25.884;2022-09-02T05:26:08;26.15;;;10.13;;
47523;SDS011;33253;42.144;25.884;2022-09-02T05:28:36;31.13;;;11.27;;
47523;SDS011;33253;42.144;25.884;2022-09-02T05:31:03;26.02;;;10.25;;
47523;SDS011;33253;42.144;25.884;2022-09-02T05:33:33;27.25;;;9.88;;
47523;SDS011;33253;42.144;25.884;2022-09-02T05:36:04;33.33;;;10.25;;
47523;SDS011;33253;42.144;25.884;2022-09-02T05:38:31;22.90;;;9.65;;
47523;SDS011;33253;42.144;25.884;2022-09-02T05:40:57;23.00;;;9.18;;
47523;SDS011;33253;42.144;25.884;2022-09-02T05:43:24;27.25;;;9.77;;
47523;SDS011;33253;42.144;25.884;2022-09-02T05:45:49;23.50;;;10.40;;
47523;SDS011;33253;42.144;25.884;2022-09-02T05:48:15;26.60;;;10.43;;
47523;SDS011;33253;42.144;25.884;2022-09-02T05:51:02;19.38;;;8.45;;
47523;SDS011;33253;42.144;25.884;2022-09-02T05:53:29;24.13;;;9.88;;
47523;SDS011;33253;42.144;25.884;2022-09-02T05:55:55;26.92;;;10.20;;
47523;SDS011;33253;42.144;25.884;2022-09-02T05:58:21;30.35;;;10.05;;
47523;SDS011;33253;42.144;25.884;2022-09-02T06:00:46;17.20;;;8.20;;
47523;SDS011;33253;42.144;25.884;2022-09-02T06:03:12;19.15;;;7.75;;
47523;SDS011;33253;42.144;25.884;2022-09-02T06:05:38;17.13;;;8.38;;
47523;SDS011;33253;42.144;25.884;2022-09-02T06:08:05;23.60;;;7.60;;
47523;SDS011;33253;42.144;25.884;2022-09-02T06:10:30;16.98;;;7.03;;
47523;SDS011;33253;42.144;25.884;2022-09-02T06:12:56;15.60;;;6.97;;
47523;SDS011;33253;42.144;25.884;2022-09-02T06:15:21;11.00;;;6.68;;
47523;SDS011;33253;42.144;25.884;2022-09-02T06:17:47;10.25;;;6.07;;
47523;SDS011;33253;42.144;25.884;2022-09-02T06:20:12;13.02;;;6.50;;
47523;SDS011;33253;42.144;25.884;2022-09-02T06:22:38;12.55;;;6.38;;
47523;SDS011;33253;42.144;25.884;2022-09-02T06:25:03;8.07;;;5.90;;
47523;SDS011;33253;42.144;25.884;2022-09-02T06:27:29;17.05;;;6.40;;
47523;SDS011;33253;42.144;25.884;2022-09-02T06:29:55;11.80;;;6.57;;
47523;SDS011;33253;42.144;25.884;2022-09-02T06:32:20;15.07;;;6.65;;
47523;SDS011;33253;42.144;25.884;2022-09-02T06:34:46;11.88;;;6.40;;
47523;SDS011;33253;42.144;25.884;2022-09-02T06:37:12;11.80;;;6.50;;
47523;SDS011;33253;42.144;25.884;2022-09-02T06:39:37;10.48;;;6.60;;
47523;SDS011;33253;42.144;25.884;2022-09-02T06:42:07;12.98;;;6.10;;
47523;SDS011;33253;42.144;25.884;2022-09-02T06:44:33;15.68;;;6.40;;
47523;SDS011;33253;42.144;25.884;2022-09-02T06:46:58;10.38;;;6.68;;
47523;SDS011;33253;42.144;25.884;2022-09-02T06:49:25;13.27;;;5.95;;
47523;SDS011;33253;42.144;25.884;2022-09-02T06:51:53;12.20;;;6.68;;
47523;SDS011;33253;42.144;25.884;2022-09-02T06:54:21;13.18;;;6.72;;
47523;SDS011;33253;42.144;25.884;2022-09-02T06:56:48;12.43;;;6.03;;
47523;SDS011;33253;42.144;25.884;2022-09-02T06:59:14;10.75;;;6.35;;
47523;SDS011;33253;42.144;25.884;2022-09-02T07:01:40;8.40;;;5.55;;
47523;SDS011;33253;42.144;25.884;2022-09-02T07:04:07;12.48;;;5.97;;
47523;SDS011;33253;42.144;25.884;2022-09-02T07:06:52;12.18;;;6.90;;
47523;SDS011;33253;42.144;25.884;2022-09-02T07:09:20;14.23;;;6.65;;
47523;SDS011;33253;42.144;25.884;2022-09-02T07:11:47;11.20;;;5.25;;
47523;SDS011;33253;42.144;25.884;2022-09-02T07:14:15;10.52;;;5.57;;
47523;SDS011;33253;42.144;25.884;2022-09-02T07:16:44;10.88;;;6.60;;
47523;SDS011;33253;42.144;25.884;2022-09-02T07:19:13;8.48;;;5.78;;
47523;SDS011;33253;42.144;25.884;2022-09-02T07:21:39;10.45;;;6.07;;
47523;SDS011;33253;42.144;25.884;2022-09-02T07:24:06;11.73;;;5.63;;
47523;SDS011;33253;42.144;25.884;2022-09-02T07:26:33;10.27;;;5.70;;
47523;SDS011;33253;42.144;25.884;2022-09-02T07:28:59;12.20;;;5.70;;
47523;SDS011;33253;42.144;25.884;2022-09-02T07:31:24;8.07;;;4.72;;
47523;SDS011;33253;42.144;25.884;2022-09-02T07:33:54;9.32;;;5.88;;
47523;SDS011;33253;42.144;25.884;2022-09-02T07:38:49;12.52;;;5.78;;
47523;SDS011;33253;42.144;25.884;2022-09-02T07:41:15;13.48;;;5.82;;
47523;SDS011;33253;42.144;25.884;2022-09-02T07:43:40;11.57;;;5.30;;
47523;SDS011;33253;42.144;25.884;2022-09-02T07:46:06;7.80;;;5.75;;
47523;SDS011;33253;42.144;25.884;2022-09-02T07:48:32;9.20;;;6.00;;
47523;SDS011;33253;42.144;25.884;2022-09-02T07:50:58;12.48;;;5.70;;
47523;SDS011;33253;42.144;25.884;2022-09-02T07:53:24;8.55;;;5.25;;
47523;SDS011;33253;42.144;25.884;2022-09-02T07:55:50;8.43;;;5.25;;
47523;SDS011;33253;42.144;25.884;2022-09-02T07:58:16;8.73;;;5.07;;
47523;SDS011;33253;42.144;25.884;2022-09-02T08:00:44;7.68;;;5.18;;
47523;SDS011;33253;42.144;25.884;2022-09-02T08:03:10;8.60;;;5.30;;
47523;SDS011;33253;42.144;25.884;2022-09-02T08:05:36;10.68;;;5.57;;
47523;SDS011;33253;42.144;25.884;2022-09-02T08:08:03;8.38;;;5.38;;
47523;SDS011;33253;42.144;25.884;2022-09-02T08:10:33;11.45;;;5.90;;
47523;SDS011;33253;42.144;25.884;2022-09-02T08:13:00;10.27;;;5.85;;
47523;SDS011;33253;42.144;25.884;2022-09-02T08:15:26;10.43;;;5.88;;
47523;SDS011;33253;42.144;25.884;2022-09-02T08:17:53;11.27;;;5.10;;
47523;SDS011;33253;42.144;25.884;2022-09-02T08:20:22;8.20;;;5.00;;
47523;SDS011;33253;42.144;25.884;2022-09-02T08:22:48;11.32;;;5.35;;
47523;SDS011;33253;42.144;25.884;2022-09-02T08:25:14;15.77;;;6.40;;
47523;SDS011;33253;42.144;25.884;2022-09-02T08:27:42;9.63;;;6.13;;
47523;SDS011;33253;42.144;25.884;2022-09-02T08:30:08;10.68;;;5.78;;
47523;SDS011;33253;42.144;25.884;2022-09-02T08:32:35;12.07;;;5.65;;
47523;SDS011;33253;42.144;25.884;2022-09-02T08:35:02;10.63;;;5.35;;
47523;SDS011;33253;42.144;25.884;2022-09-02T08:37:29;10.98;;;5.50;;
47523;SDS011;33253;42.144;25.884;2022-09-02T08:39:56;8.30;;;4.72;;
47523;SDS011;33253;42.144;25.884;2022-09-02T08:42:23;11.05;;;5.72;;
47523;SDS011;33253;42.144;25.884;2022-09-02T08:45:03;10.32;;;5.40;;
47523;SDS011;33253;42.144;25.884;2022-09-02T08:47:57;13.23;;;5.55;;
47523;SDS011;33253;42.144;25.884;2022-09-02T08:50:33;9.65;;;4.90;;
47523;SDS011;33253;42.144;25.884;2022-09-02T08:55:46;9.30;;;4.93;;
47523;SDS011;33253;42.144;25.884;2022-09-02T08:58:18;9.23;;;5.50;;
47523;SDS011;33253;42.144;25.884;2022-09-02T09:00:49;9.65;;;4.75;;
47523;SDS011;33253;42.144;25.884;2022-09-02T09:17:51;9.98;;;5.93;;
47523;SDS011;33253;42.144;25.884;2022-09-02T09:20:25;8.23;;;4.85;;
47523;SDS011;33253;42.144;25.884;2022-09-02T09:22:54;9.52;;;5.22;;
47523;SDS011;33253;42.144;25.884;2022-09-02T09:25:21;10.73;;;5.10;;
47523;SDS011;33253;42.144;25.884;2022-09-02T09:27:57;9.05;;;4.72;;
47523;SDS011;33253;42.144;25.884;2022-09-02T09:30:23;7.88;;;4.85;;
47523;SDS011;33253;42.144;25.884;2022-09-02T09:32:52;8.13;;;4.45;;
47523;SDS011;33253;42.144;25.884;2022-09-02T09:35:20;11.40;;;4.90;;
47523;SDS011;33253;42.144;25.884;2022-09-02T09:37:47;10.07;;;4.80;;
47523;SDS011;33253;42.144;25.884;2022-09-02T09:42:44;6.72;;;4.72;;
47523;SDS011;33253;42.144;25.884;2022-09-02T09:50:43;9.20;;;4.65;;
47523;SDS011;33253;42.144;25.884;2022-09-02T09:55:55;7.85;;;4.70;;
47523;SDS011;33253;42.144;25.884;2022-09-02T09:58:23;10.15;;;4.90;;
47523;SDS011;33253;42.144;25.884;2022-09-02T10:00:55;10.20;;;5.07;;
47523;SDS011;33253;42.144;25.884;2022-09-02T10:03:27;11.70;;;5.00;;
47523;SDS011;33253;42.144;25.884;2022-09-02T10:05:55;8.13;;;4.65;;
47523;SDS011;33253;42.144;25.884;2022-09-02T10:08:23;10.00;;;4.38;;
47523;SDS011;33253;42.144;25.884;2022-09-02T10:11:00;12.15;;;5.32;;
47523;SDS011;33253;42.144;25.884;2022-09-02T10:13:28;11.85;;;4.95;;
47523;SDS011;33253;42.144;25.884;2022-09-02T10:18:52;9.45;;;4.85;;
47523;SDS011;33253;42.144;25.884;2022-09-02T10:26:52;11.02;;;4.55;;
47523;SDS011;33253;42.144;25.884;2022-09-02T10:40:48;10.38;;;4.95;;
47523;SDS011;33253;42.144;25.884;2022-09-02T10:43:32;9.98;;;4.50;;
47523;SDS011;33253;42.144;25.884;2022-09-02T10:46:09;7.38;;;4.18;;
47523;SDS011;33253;42.144;25.884;2022-09-02T10:48:48;10.65;;;4.72;;
47523;SDS011;33253;42.144;25.884;2022-09-02T10:54:42;9.50;;;4.90;;
47523;SDS011;33253;42.144;25.884;2022-09-02T10:57:13;8.05;;;4.72;;
47523;SDS011;33253;42.144;25.884;2022-09-02T11:02:44;8.63;;;4.80;;
47523;SDS011;33253;42.144;25.884;2022-09-02T11:07:54;11.80;;;4.18;;
47523;SDS011;33253;42.144;25.884;2022-09-02T11:10:36;9.70;;;4.93;;
47523;SDS011;33253;42.144;25.884;2022-09-02T11:15:39;8.75;;;4.40;;
47523;SDS011;33253;42.144;25.884;2022-09-02T11:18:23;8.70;;;4.95;;
47523;SDS011;33253;42.144;25.884;2022-09-02T11:21:04;8.95;;;5.05;;
47523;SDS011;33253;42.144;25.884;2022-09-02T11:26:03;7.55;;;5.05;;
47523;SDS011;33253;42.144;25.884;2022-09-02T11:28:39;9.13;;;5.57;;
47523;SDS011;33253;42.144;25.884;2022-09-02T11:34:06;9.68;;;6.13;;
47523;SDS011;33253;42.144;25.884;2022-09-02T11:36:39;12.13;;;6.10;;
47523;SDS011;33253;42.144;25.884;2022-09-02T11:41:53;18.52;;;6.00;;
47523;SDS011;33253;42.144;25.884;2022-09-02T11:55:13;23.27;;;7.88;;
47523;SDS011;33253;42.144;25.884;2022-09-02T11:57:41;14.65;;;6.72;;
47523;SDS011;33253;42.144;25.884;2022-09-02T12:03:23;20.50;;;6.80;;
47523;SDS011;33253;42.144;25.884;2022-09-02T12:11:07;14.75;;;5.35;;
47523;SDS011;33253;42.144;25.884;2022-09-02T12:13:42;12.73;;;4.22;;
47523;SDS011;33253;42.144;25.884;2022-09-02T12:21:25;10.55;;;4.30;;
47523;SDS011;33253;42.144;25.884;2022-09-02T12:26:24;7.13;;;3.53;;
47523;SDS011;33253;42.144;25.884;2022-09-02T12:31:50;9.65;;;4.25;;
47523;SDS011;33253;42.144;25.884;2022-09-02T12:36:57;15.10;;;5.43;;
47523;SDS011;33253;42.144;25.884;2022-09-02T12:47:56;11.05;;;5.95;;
47523;SDS011;33253;42.144;25.884;2022-09-02T12:58:22;9.68;;;4.82;;
47523;SDS011;33253;42.144;25.884;2022-09-02T13:00:55;14.88;;;4.97;;
47523;SDS011;33253;42.144;25.884;2022-09-02T13:30:12;5.40;;;3.63;;
47523;SDS011;33253;42.144;25.884;2022-09-02T13:32:54;6.38;;;3.75;;
47523;SDS011;33253;42.144;25.884;2022-09-02T13:35:24;7.90;;;3.70;;
47523;SDS011;33253;42.144;25.884;2022-09-02T13:37:55;6.53;;;3.95;;
47523;SDS011;33253;42.144;25.884;2022-09-02T13:43:03;4.82;;;3.65;;
47523;SDS011;33253;42.144;25.884;2022-09-02T13:45:41;7.57;;;4.20;;
47523;SDS011;33253;42.144;25.884;2022-09-02T13:48:10;7.40;;;4.40;;
47523;SDS011;33253;42.144;25.884;2022-09-02T13:50:44;7.95;;;4.40;;
47523;SDS011;33253;42.144;25.884;2022-09-02T13:53:32;5.25;;;3.60;;
47523;SDS011;33253;42.144;25.884;2022-09-02T13:56:22;9.27;;;3.67;;
47523;SDS011;33253;42.144;25.884;2022-09-02T13:58:53;5.68;;;3.45;;
47523;SDS011;33253;42.144;25.884;2022-09-02T14:01:26;11.38;;;5.50;;
47523;SDS011;33253;42.144;25.884;2022-09-02T14:04:11;13.73;;;6.63;;
47523;SDS011;33253;42.144;25.884;2022-09-02T14:06:40;7.82;;;4.22;;
47523;SDS011;33253;42.144;25.884;2022-09-02T14:09:19;6.85;;;4.10;;
47523;SDS011;33253;42.144;25.884;2022-09-02T14:11:50;10.60;;;4.32;;
47523;SDS011;33253;42.144;25.884;2022-09-02T14:14:18;24.80;;;6.25;;
47523;SDS011;33253;42.144;25.884;2022-09-02T14:16:47;17.30;;;6.32;;
47523;SDS011;33253;42.144;25.884;2022-09-02T14:21:44;19.23;;;6.65;;
47523;SDS011;33253;42.144;25.884;2022-09-02T14:24:13;17.67;;;7.90;;
47523;SDS011;33253;42.144;25.884;2022-09-02T14:26:43;14.15;;;7.22;;
47523;SDS011;33253;42.144;25.884;2022-09-02T14:29:17;27.38;;;10.13;;
47523;SDS011;33253;42.144;25.884;2022-09-02T14:31:44;15.05;;;8.48;;
47523;SDS011;33253;42.144;25.884;2022-09-02T14:36:58;18.08;;;11.43;;
47523;SDS011;33253;42.144;25.884;2022-09-02T14:39:24;24.67;;;11.50;;
47523;SDS011;33253;42.144;25.884;2022-09-02T14:41:53;20.45;;;8.88;;
47523;SDS011;33253;42.144;25.884;2022-09-02T14:44:30;15.13;;;7.88;;
47523;SDS011;33253;42.144;25.884;2022-09-02T14:47:05;13.45;;;8.55;;
47523;SDS011;33253;42.144;25.884;2022-09-02T14:49:38;16.63;;;8.35;;
47523;SDS011;33253;42.144;25.884;2022-09-02T14:54:55;18.15;;;7.72;;
47523;SDS011;33253;42.144;25.884;2022-09-02T15:00:09;18.73;;;7.72;;
47523;SDS011;33253;42.144;25.884;2022-09-02T15:02:39;31.27;;;9.88;;
47523;SDS011;33253;42.144;25.884;2022-09-02T15:05:07;22.25;;;9.02;;
47523;SDS011;33253;42.144;25.884;2022-09-02T15:07:35;21.63;;;9.27;;
47523;SDS011;33253;42.144;25.884;2022-09-02T15:10:00;16.45;;;8.85;;
47523;SDS011;33253;42.144;25.884;2022-09-02T15:12:27;18.05;;;8.13;;
47523;SDS011;33253;42.144;25.884;2022-09-02T15:14:56;11.98;;;7.68;;
47523;SDS011;33253;42.144;25.884;2022-09-02T15:17:22;17.98;;;8.38;;
47523;SDS011;33253;42.144;25.884;2022-09-02T15:19:48;16.00;;;8.50;;
47523;SDS011;33253;42.144;25.884;2022-09-02T15:22:14;18.55;;;7.70;;
47523;SDS011;33253;42.144;25.884;2022-09-02T15:24:41;14.05;;;10.45;;
47523;SDS011;33253;42.144;25.884;2022-09-02T15:27:07;15.35;;;8.85;;
47523;SDS011;33253;42.144;25.884;2022-09-02T15:29:34;15.38;;;8.65;;
47523;SDS011;33253;42.144;25.884;2022-09-02T15:31:59;17.52;;;8.20;;
47523;SDS011;33253;42.144;25.884;2022-09-02T15:34:27;16.08;;;8.13;;
47523;SDS011;33253;42.144;25.884;2022-09-02T15:36:52;14.32;;;8.10;;
47523;SDS011;33253;42.144;25.884;2022-09-02T15:39:19;13.90;;;7.80;;
47523;SDS011;33253;42.144;25.884;2022-09-02T15:41:46;14.60;;;8.48;;
47523;SDS011;33253;42.144;25.884;2022-09-02T15:44:14;17.45;;;9.15;;
47523;SDS011;33253;42.144;25.884;2022-09-02T15:46:40;13.73;;;7.13;;
47523;SDS011;33253;42.144;25.884;2022-09-02T15:49:08;12.77;;;6.35;;
47523;SDS011;33253;42.144;25.884;2022-09-02T15:51:54;15.65;;;6.80;;
47523;SDS011;33253;42.144;25.884;2022-09-02T15:54:22;11.20;;;5.57;;
47523;SDS011;33253;42.144;25.884;2022-09-02T15:56:48;9.10;;;5.78;;
47523;SDS011;33253;42.144;25.884;2022-09-02T15:59:18;11.90;;;6.28;;
47523;SDS011;33253;42.144;25.884;2022-09-02T16:01:47;11.00;;;6.60;;
47523;SDS011;33253;42.144;25.884;2022-09-02T16:04:14;10.82;;;6.97;;
47523;SDS011;33253;42.144;25.884;2022-09-02T16:06:41;14.38;;;7.40;;
47523;SDS011;33253;42.144;25.884;2022-09-02T16:09:10;13.70;;;8.10;;
47523;SDS011;33253;42.144;25.884;2022-09-02T16:11:37;10.43;;;6.70;;
47523;SDS011;33253;42.144;25.884;2022-09-02T16:14:03;12.02;;;7.28;;
47523;SDS011;33253;42.144;25.884;2022-09-02T16:16:30;10.32;;;6.88;;
47523;SDS011;33253;42.144;25.884;2022-09-02T16:18:56;15.88;;;8.30;;
47523;SDS011;33253;42.144;25.884;2022-09-02T16:21:21;13.38;;;7.82;;
47523;SDS011;33253;42.144;25.884;2022-09-02T16:23:47;11.75;;;7.03;;
47523;SDS011;33253;42.144;25.884;2022-09-02T16:28:59;11.65;;;7.82;;
47523;SDS011;33253;42.144;25.884;2022-09-02T16:31:26;11.13;;;8.20;;
47523;SDS011;33253;42.144;25.884;2022-09-02T16:33:57;10.15;;;8.18;;
47523;SDS011;33253;42.144;25.884;2022-09-02T16:36:25;11.23;;;7.85;;
47523;SDS011;33253;42.144;25.884;2022-09-02T16:38:51;11.65;;;8.23;;
47523;SDS011;33253;42.144;25.884;2022-09-02T16:41:23;10.18;;;7.60;;
47523;SDS011;33253;42.144;25.884;2022-09-02T16:43:51;13.45;;;8.75;;
47523;SDS011;33253;42.144;25.884;2022-09-02T16:46:17;21.80;;;10.75;;
47523;SDS011;33253;42.144;25.884;2022-09-02T16:48:43;11.55;;;8.25;;
47523;SDS011;33253;42.144;25.884;2022-09-02T16:51:08;10.45;;;8.35;;
47523;SDS011;33253;42.144;25.884;2022-09-02T16:53:34;24.08;;;13.57;;
47523;SDS011;33253;42.144;25.884;2022-09-02T16:56:01;12.15;;;9.05;;
47523;SDS011;33253;42.144;25.884;2022-09-02T16:58:27;10.20;;;7.43;;
47523;SDS011;33253;42.144;25.884;2022-09-02T17:00:55;9.95;;;8.02;;
47523;SDS011;33253;42.144;25.884;2022-09-02T17:03:21;8.57;;;7.30;;
47523;SDS011;33253;42.144;25.884;2022-09-02T17:05:46;11.80;;;8.07;;
47523;SDS011;33253;42.144;25.884;2022-09-02T17:08:13;12.52;;;9.30;;
47523;SDS011;33253;42.144;25.884;2022-09-02T17:10:39;14.52;;;8.95;;
47523;SDS011;33253;42.144;25.884;2022-09-02T17:13:05;10.50;;;8.05;;
47523;SDS011;33253;42.144;25.884;2022-09-02T17:15:30;9.82;;;7.93;;
47523;SDS011;33253;42.144;25.884;2022-09-02T17:17:56;11.82;;;7.72;;